createdAt,value
2019-05-23T00:00:37.453Z,-55
2019-05-23T00:01:35.211Z,-56
2019-05-23T00:02:35.168Z,-55
2019-05-23T00:03:37.189Z,-56
2019-05-23T00:04:34.932Z,-56
2019-05-23T00:05:35.794Z,-56
2019-05-23T00:06:40.536Z,-55
2019-05-23T00:07:39.393Z,-55
2019-05-23T00:08:37.654Z,-56
2019-05-23T00:09:42.211Z,-56
2019-05-23T00:10:41.277Z,-55
2019-05-23T00:11:40.594Z,-55
2019-05-23T00:12:38.765Z,-56
2019-05-23T00:13:37.835Z,-55
2019-05-23T00:14:37.247Z,-55
2019-05-23T00:15:36.465Z,-55
2019-05-23T00:16:34.331Z,-55
2019-05-23T00:17:33.173Z,-55
2019-05-23T00:18:33.534Z,-55
2019-05-23T00:19:35.345Z,-56
2019-05-23T00:20:35.313Z,-56
2019-05-23T00:21:38.005Z,-56
2019-05-23T00:22:43.376Z,-55
2019-05-23T00:23:41.036Z,-56
2019-05-23T00:24:49.036Z,-55
2019-05-23T00:25:48.523Z,-55
2019-05-23T00:26:46.575Z,-56
2019-05-23T00:27:45.682Z,-55
2019-05-23T00:28:43.281Z,-55
2019-05-23T00:29:43.640Z,-55
2019-05-23T00:30:41.931Z,-56
2019-05-23T00:31:43.746Z,-56
2019-05-23T00:32:45.140Z,-56
2019-05-23T00:33:44.954Z,-56
2019-05-23T00:34:43.168Z,-55
2019-05-23T00:35:42.620Z,-55
2019-05-23T00:36:40.800Z,-55
2019-05-23T00:37:40.802Z,-55
2019-05-23T00:38:44.405Z,-56
2019-05-23T00:39:43.635Z,-56
2019-05-23T00:40:42.147Z,-56
2019-05-23T00:41:42.393Z,-55
2019-05-23T00:42:41.790Z,-55
2019-05-23T00:43:39.717Z,-55
2019-05-23T00:44:43.314Z,-56
2019-05-23T00:45:41.072Z,-55
2019-05-23T00:46:39.313Z,-55
2019-05-23T00:47:38.154Z,-55
2019-05-23T00:48:37.585Z,-55
2019-05-23T00:49:35.254Z,-56
2019-05-23T00:50:35.383Z,-55
2019-05-23T00:51:34.957Z,-55
2019-05-23T00:52:36.703Z,-56
2019-05-23T00:53:39.906Z,-56
2019-05-23T00:54:42.367Z,-56
2019-05-23T00:55:40.028Z,-55
2019-05-23T00:56:39.597Z,-55
2019-05-23T00:57:37.643Z,-56
2019-05-23T00:58:35.344Z,-55
2019-05-23T00:59:49.918Z,-55
2019-05-23T01:00:53.149Z,-55
2019-05-23T01:01:52.009Z,-55
2019-05-23T01:02:49.554Z,-55
2019-05-23T01:03:53.512Z,-56
2019-05-23T01:04:53.896Z,-56
2019-05-23T01:05:51.637Z,-55
2019-05-23T01:06:49.577Z,-56
2019-05-23T01:07:47.207Z,-55
2019-05-23T01:08:49.432Z,-55
2019-05-23T01:09:48.069Z,-55
2019-05-23T01:10:51.290Z,-55
2019-05-23T01:11:49.630Z,-56
2019-05-23T01:12:47.379Z,-55
2019-05-23T01:13:45.849Z,-55
2019-05-23T01:14:44.469Z,-56
2019-05-23T01:15:44.038Z,-56
2019-05-23T01:16:43.792Z,-55
2019-05-23T01:17:41.724Z,-55
2019-05-23T01:18:42.959Z,-55
2019-05-23T01:19:40.738Z,-56
2019-05-23T01:20:38.992Z,-55
2019-05-23T01:21:41.244Z,-55
2019-05-23T01:22:43.165Z,-55
2019-05-23T01:23:45.844Z,-56
2019-05-23T01:24:45.720Z,-55
2019-05-23T01:25:48.775Z,-55
2019-05-23T01:26:48.179Z,-55
2019-05-23T01:27:46.722Z,-55
2019-05-23T01:28:44.826Z,-56
2019-05-23T01:29:53.508Z,-55
2019-05-23T01:30:54.154Z,-54
2019-05-23T01:31:55.501Z,-55
2019-05-23T01:33:00.069Z,-55
2019-05-23T01:33:58.400Z,-56
2019-05-23T01:34:57.399Z,-56
2019-05-23T01:35:56.164Z,-55
2019-05-23T01:36:54.705Z,-55
2019-05-23T01:37:53.773Z,-56
2019-05-23T01:38:58.597Z,-55
2019-05-23T01:39:57.579Z,-55
2019-05-23T01:40:56.486Z,-55
2019-05-23T01:42:03.778Z,-55
2019-05-23T01:43:03.703Z,-56
2019-05-23T01:44:04.397Z,-55
2019-05-23T01:45:02.481Z,-56
2019-05-23T01:46:09.632Z,-55
2019-05-23T01:47:10.105Z,-55
2019-05-23T01:48:08.413Z,-55
2019-05-23T01:49:14.366Z,-55
2019-05-23T01:50:12.071Z,-56
2019-05-23T01:51:10.851Z,-56
2019-05-23T01:52:09.541Z,-55
2019-05-23T01:53:07.347Z,-55
2019-05-23T01:54:06.807Z,-56
2019-05-23T01:55:10.850Z,-56
2019-05-23T01:56:09.024Z,-55
2019-05-23T01:57:08.222Z,-56
2019-05-23T01:58:09.182Z,-55
2019-05-23T01:59:09.088Z,-55
2019-05-23T02:00:13.776Z,-55
2019-05-23T02:01:11.857Z,-56
2019-05-23T02:02:09.373Z,-55
2019-05-23T02:03:07.763Z,-56
2019-05-23T02:04:06.146Z,-56
2019-05-23T02:05:04.230Z,-55
2019-05-23T02:06:03.224Z,-55
2019-05-23T02:07:02.679Z,-56
2019-05-23T02:08:01.983Z,-56
2019-05-23T02:09:00.937Z,-55
2019-05-23T02:10:00.854Z,-55
2019-05-23T02:11:01.535Z,-56
2019-05-23T02:12:01.424Z,-55
2019-05-23T02:13:06.859Z,-56
2019-05-23T02:14:05.455Z,-56
2019-05-23T02:15:12.175Z,-55
2019-05-23T02:16:09.916Z,-56
2019-05-23T02:17:07.719Z,-56
2019-05-23T02:18:05.934Z,-55
2019-05-23T02:19:06.363Z,-55
2019-05-23T02:20:05.540Z,-56
2019-05-23T02:21:07.223Z,-55
2019-05-23T02:22:06.912Z,-56
2019-05-23T02:23:12.474Z,-55
2019-05-23T02:24:09.893Z,-55
2019-05-23T02:25:12.389Z,-56
2019-05-23T02:26:10.258Z,-55
2019-05-23T02:27:11.823Z,-56
2019-05-23T02:28:09.332Z,-55
2019-05-23T02:29:07.325Z,-55
2019-05-23T02:30:04.991Z,-56
2019-05-23T02:31:08.377Z,-56
2019-05-23T02:32:21.900Z,-55
2019-05-23T02:33:24.236Z,-56
2019-05-23T02:34:26.040Z,-55
2019-05-23T02:35:27.209Z,-56
2019-05-23T02:36:28.036Z,-55
2019-05-23T02:37:44.044Z,-55
2019-05-23T02:38:46.205Z,-55
2019-05-23T02:39:45.935Z,-55
2019-05-23T02:40:44.244Z,-55
2019-05-23T02:41:45.575Z,-56
2019-05-23T02:42:47.223Z,-55
2019-05-23T02:43:44.860Z,-55
2019-05-23T02:44:42.437Z,-55
2019-05-23T02:45:41.138Z,-56
2019-05-23T02:46:47.435Z,-55
2019-05-23T02:47:44.872Z,-56
2019-05-23T02:48:44.140Z,-56
2019-05-23T02:49:49.025Z,-55
2019-05-23T02:50:48.889Z,-56
2019-05-23T02:51:48.003Z,-56
2019-05-23T02:52:46.842Z,-56
2019-05-23T02:53:45.421Z,-55
2019-05-23T02:54:46.624Z,-56
2019-05-23T02:55:50.027Z,-55
2019-05-23T02:56:48.794Z,-55
2019-05-23T02:57:53.918Z,-55
2019-05-23T02:58:54.970Z,-55
2019-05-23T02:59:54.175Z,-56
2019-05-23T03:00:54.608Z,-56
2019-05-23T03:01:53.250Z,-55
2019-05-23T03:02:58.792Z,-55
2019-05-23T03:03:58.093Z,-56
2019-05-23T03:05:03.691Z,-56
2019-05-23T03:06:02.720Z,-56
2019-05-23T03:07:00.663Z,-55
2019-05-23T03:08:01.299Z,-55
2019-05-23T03:09:00.031Z,-55
2019-05-23T03:09:58.057Z,-56
2019-05-23T03:10:58.903Z,-56
2019-05-23T03:11:57.428Z,-55
2019-05-23T03:12:59.974Z,-55
2019-05-23T03:13:59.601Z,-56
2019-05-23T03:15:01.599Z,-56
2019-05-23T03:15:59.971Z,-56
2019-05-23T03:17:00.787Z,-55
2019-05-23T03:18:00.476Z,-56
2019-05-23T03:18:58.729Z,-56
2019-05-23T03:19:57.428Z,-56
2019-05-23T03:20:58.666Z,-55
2019-05-23T03:21:59.350Z,-55
2019-05-23T03:22:58.046Z,-56
2019-05-23T03:23:56.664Z,-55
2019-05-23T03:24:59.415Z,-55
2019-05-23T03:25:58.166Z,-55
2019-05-23T03:26:58.317Z,-55
2019-05-23T03:27:58.836Z,-55
2019-05-23T03:28:56.234Z,-56
2019-05-23T03:29:54.985Z,-55
2019-05-23T03:31:26.499Z,-55
2019-05-23T03:31:26.898Z,-55
2019-05-23T03:31:28.326Z,-55
2019-05-23T03:32:02.517Z,-55
2019-05-23T03:35:05.973Z,-56
2019-05-23T03:36:04.623Z,-56
2019-05-23T03:37:10.496Z,-56
2019-05-23T03:38:08.488Z,-55
2019-05-23T03:39:08.064Z,-55
2019-05-23T03:40:09.336Z,-56
2019-05-23T03:41:08.214Z,-56
2019-05-23T03:42:06.690Z,-55
2019-05-23T03:43:04.631Z,-55
2019-05-23T03:44:03.916Z,-56
2019-05-23T03:45:04.174Z,-55
2019-05-23T03:46:09.683Z,-56
2019-05-23T03:47:07.383Z,-56
2019-05-23T03:48:04.916Z,-55
2019-05-23T03:49:08.287Z,-56
2019-05-23T03:50:11.384Z,-55
2019-05-23T03:51:09.214Z,-56
2019-05-23T03:52:09.923Z,-56
2019-05-23T03:53:09.271Z,-56
2019-05-23T03:54:11.284Z,-55
2019-05-23T03:55:08.976Z,-56
2019-05-23T03:56:06.736Z,-56
2019-05-23T03:57:04.634Z,-56
2019-05-23T03:58:05.659Z,-56
2019-05-23T03:59:06.252Z,-55
2019-05-23T04:00:04.067Z,-55
2019-05-23T04:01:01.751Z,-56
2019-05-23T04:02:00.799Z,-56
2019-05-23T04:02:59.098Z,-55
2019-05-23T04:03:58.441Z,-56
2019-05-23T04:05:00.785Z,-55
2019-05-23T04:05:58.329Z,-56
2019-05-23T04:06:56.380Z,-55
2019-05-23T04:07:59.999Z,-55
2019-05-23T04:08:58.538Z,-55
2019-05-23T04:09:56.314Z,-56
2019-05-23T04:10:57.498Z,-56
2019-05-23T04:11:57.375Z,-55
2019-05-23T04:12:57.703Z,-55
2019-05-23T04:13:55.300Z,-55
2019-05-23T04:14:56.670Z,-56
2019-05-23T04:15:54.509Z,-56
2019-05-23T04:16:52.929Z,-55
2019-05-23T04:17:53.881Z,-55
2019-05-23T04:18:55.674Z,-56
2019-05-23T04:19:56.546Z,-56
2019-05-23T04:20:54.454Z,-56
2019-05-23T04:21:53.585Z,-55
2019-05-23T04:22:51.241Z,-55
2019-05-23T04:23:51.747Z,-56
2019-05-23T04:24:49.464Z,-55
2019-05-23T04:25:47.671Z,-55
2019-05-23T04:26:45.398Z,-56
2019-05-23T04:27:46.307Z,-55
2019-05-23T04:28:44.901Z,-55
2019-05-23T04:29:42.437Z,-55
2019-05-23T04:30:41.607Z,-55
2019-05-23T04:31:40.652Z,-55
2019-05-23T04:32:40.575Z,-56
2019-05-23T04:33:40.256Z,-55
2019-05-23T04:34:42.113Z,-56
2019-05-23T04:35:44.284Z,-55
2019-05-23T04:36:43.850Z,-55
2019-05-23T04:37:43.599Z,-55
2019-05-23T04:38:42.002Z,-56
2019-05-23T04:39:39.717Z,-56
2019-05-23T04:40:37.825Z,-57
2019-05-23T04:41:38.591Z,-57
2019-05-23T04:42:36.633Z,-55
2019-05-23T04:43:41.242Z,-55
2019-05-23T04:44:43.485Z,-55
2019-05-23T04:44:44.813Z,-55
2019-05-23T04:45:41.467Z,-55
2019-05-23T04:46:41.235Z,-55
2019-05-23T04:47:40.816Z,-55
2019-05-23T04:48:39.213Z,-55
2019-05-23T04:49:39.870Z,-54
2019-05-23T04:50:37.964Z,-55
2019-05-23T04:51:39.209Z,-55
2019-05-23T04:52:36.748Z,-55
2019-05-23T04:53:41.698Z,-55
2019-05-23T04:54:39.637Z,-55
2019-05-23T04:55:38.470Z,-55
2019-05-23T04:56:25.549Z,-55
2019-05-23T04:57:23.805Z,-57
2019-05-23T04:58:28.392Z,-55
2019-05-23T04:59:26.907Z,-54
2019-05-23T05:00:25.007Z,-54
2019-05-23T05:01:26.057Z,-55
2019-05-23T05:02:27.157Z,-55
2019-05-23T05:03:24.676Z,-54
2019-05-23T05:04:24.071Z,-55
2019-05-23T05:05:31.335Z,-55
2019-05-23T05:06:29.667Z,-55
2019-05-23T05:07:27.605Z,-55
2019-05-23T05:08:28.056Z,-55
2019-05-23T05:09:27.757Z,-55
2019-05-23T05:10:28.429Z,-55
2019-05-23T05:11:30.532Z,-54
2019-05-23T05:12:27.589Z,-54
2019-05-23T05:13:26.857Z,-54
2019-05-23T05:14:30.316Z,-55
2019-05-23T05:15:28.952Z,-56
2019-05-23T05:16:33.918Z,-55
2019-05-23T05:17:38.385Z,-54
2019-05-23T05:18:37.569Z,-55
2019-05-23T05:19:44.673Z,-55
2019-05-23T05:20:42.807Z,-55
2019-05-23T05:21:47.746Z,-56
2019-05-23T05:23:09.176Z,-55
2019-05-23T05:24:06.799Z,-55
2019-05-23T05:25:07.374Z,-54
2019-05-23T05:26:06.360Z,-55
2019-05-23T05:27:04.862Z,-55
2019-05-23T05:35:59.366Z,-55
2019-05-23T05:37:02.220Z,-55
2019-05-23T05:38:02.709Z,-55
2019-05-23T05:39:01.610Z,-55
2019-05-23T05:39:58.648Z,-54
2019-05-23T05:41:04.584Z,-54
2019-05-23T12:03:39.673Z,-57
2019-05-23T12:04:39.988Z,-57
2019-05-23T12:05:43.239Z,-56
2019-05-23T12:06:55.122Z,-59
2019-05-23T12:06:55.754Z,-59
2019-05-23T12:06:56.742Z,-59
2019-05-23T12:07:52.315Z,-58
2019-05-23T12:08:56.431Z,-57
2019-05-23T12:12:33.689Z,-59
2019-05-23T12:13:32.753Z,-58
2019-05-23T12:14:33.043Z,-59
2019-05-23T12:36:07.121Z,-58
2019-05-23T12:37:18.908Z,-58
2019-05-23T12:37:19.700Z,-58
2019-05-23T12:37:20.332Z,-58
2019-05-23T12:39:45.907Z,-57
2019-05-23T12:40:47.755Z,-57
2019-05-23T12:41:50.543Z,-56
2019-05-23T12:42:49.160Z,-58
2019-05-23T12:43:48.563Z,-57
2019-05-23T12:44:48.501Z,-57
2019-05-23T12:45:48.149Z,-57
2019-05-23T12:46:47.155Z,-58
2019-05-23T12:47:46.276Z,-57
2019-05-23T12:48:50.696Z,-57
2019-05-23T12:49:53.022Z,-57
2019-05-23T12:50:54.069Z,-57
2019-05-23T12:51:51.429Z,-57
2019-05-23T12:52:49.144Z,-57
2019-05-23T12:53:48.926Z,-57
2019-05-23T12:54:48.751Z,-57
2019-05-23T12:55:48.957Z,-58
2019-05-23T12:56:50.126Z,-56
2019-05-23T12:57:48.269Z,-61
2019-05-23T12:58:46.376Z,-57
2019-05-23T12:59:44.966Z,-58
2019-05-23T13:00:44.605Z,-58
2019-05-23T13:01:45.766Z,-58
2019-05-23T13:02:43.992Z,-58
2019-05-23T13:03:43.209Z,-58
2019-05-23T13:04:41.671Z,-60
2019-05-23T13:05:45.288Z,-59
2019-05-23T13:06:43.925Z,-58
2019-05-23T13:07:53.336Z,-58
2019-05-23T13:13:24.523Z,-60
2019-05-23T13:15:50.961Z,-61
2019-05-23T13:25:40.658Z,-62
2019-05-23T13:30:51.437Z,-62
2019-05-23T13:33:21.460Z,-63
2019-05-23T13:37:08.372Z,-63
2019-05-23T13:43:06.621Z,-63
2019-05-23T13:43:09.201Z,-63
2019-05-23T13:47:06.994Z,-63
2019-05-23T13:49:45.625Z,-64
2019-05-23T13:53:37.519Z,-63
2019-05-23T14:00:02.698Z,-64
2019-05-23T14:05:10.899Z,-64
2019-05-23T14:07:26.977Z,-65
2019-05-23T14:08:31.537Z,-63
2019-05-23T14:09:32.366Z,-61
2019-05-23T14:10:29.685Z,-63
2019-05-23T14:11:35.811Z,-58
2019-05-23T14:12:32.983Z,-61
2019-05-23T14:13:30.079Z,-62
2019-05-23T14:14:27.381Z,-60
2019-05-23T14:15:28.461Z,-60
2019-05-23T14:16:26.981Z,-62
2019-05-23T14:17:26.070Z,-60
2019-05-23T14:18:23.408Z,-59
2019-05-23T14:19:21.753Z,-60
2019-05-23T14:20:24.601Z,-60
2019-05-23T14:21:21.917Z,-60
2019-05-23T14:22:24.894Z,-63
2019-05-23T14:23:24.717Z,-61
2019-05-23T14:24:21.740Z,-59
2019-05-23T14:25:20.931Z,-65
2019-05-23T14:26:25.173Z,-64
2019-05-23T14:27:27.196Z,-64
2019-05-23T14:28:30.541Z,-63
2019-05-23T14:29:29.703Z,-64
2019-05-23T14:30:29.615Z,-63
2019-05-23T14:31:28.611Z,-64
2019-05-23T14:32:29.940Z,-63
2019-05-23T14:33:32.642Z,-63
2019-05-23T14:34:35.075Z,-63
2019-05-23T14:35:32.894Z,-64
2019-05-23T14:36:32.666Z,-63
2019-05-23T14:37:29.185Z,-64
2019-05-23T14:38:30.960Z,-64
2019-05-23T14:39:26.770Z,-63
2019-05-23T14:40:29.123Z,-63
2019-05-23T14:41:44.163Z,-63
2019-05-23T14:41:44.615Z,-63
2019-05-23T14:41:45.329Z,-63
2019-05-23T14:42:28.828Z,-63
2019-05-23T14:43:26.553Z,-63
2019-05-23T14:44:25.279Z,-63
2019-05-23T14:45:23.995Z,-63
2019-05-23T14:46:25.125Z,-63
2019-05-23T14:47:22.738Z,-63
2019-05-23T14:48:23.093Z,-63
2019-05-23T14:49:22.300Z,-63
2019-05-23T14:50:21.514Z,-63
2019-05-23T14:51:23.352Z,-64
2019-05-23T14:52:24.349Z,-63
2019-05-23T14:53:22.007Z,-63
2019-05-23T14:54:20.158Z,-63
2019-05-23T14:55:20.620Z,-64
2019-05-23T14:56:19.137Z,-63
2019-05-23T14:57:17.331Z,-63
2019-05-23T14:58:22.947Z,-63
2019-05-23T14:59:23.051Z,-64
2019-05-23T15:00:19.936Z,-63
2019-05-23T15:01:18.024Z,-64
2019-05-23T15:02:18.394Z,-63
2019-05-23T15:03:24.417Z,-64
2019-05-23T15:04:21.982Z,-63
2019-05-23T15:05:19.037Z,-63
2019-05-23T15:06:16.349Z,-63
2019-05-23T15:07:14.415Z,-63
2019-05-23T15:08:11.383Z,-63
2019-05-23T15:09:09.148Z,-63
2019-05-23T15:10:06.075Z,-63
2019-05-23T15:11:05.519Z,-63
2019-05-23T15:12:05.470Z,-64
2019-05-23T15:13:09.536Z,-63
2019-05-23T15:14:06.794Z,-63
2019-05-23T15:15:05.867Z,-63
2019-05-23T15:16:02.804Z,-63
2019-05-23T15:17:04.033Z,-63
2019-05-23T15:18:04.727Z,-63
2019-05-23T15:19:02.456Z,-63
2019-05-23T15:20:00.231Z,-64
2019-05-23T15:20:57.709Z,-63
2019-05-23T15:21:55.996Z,-62
2019-05-23T15:22:59.869Z,-63
2019-05-23T15:24:00.149Z,-63
2019-05-23T15:24:57.412Z,-63
2019-05-23T15:25:55.131Z,-62
2019-05-23T15:26:54.900Z,-63
2019-05-23T15:27:56.508Z,-63
2019-05-23T15:28:57.427Z,-63
2019-05-23T15:29:54.705Z,-63
2019-05-23T15:30:58.915Z,-63
2019-05-23T15:32:02.306Z,-63
2019-05-23T15:32:03.223Z,-63
2019-05-23T15:33:07.757Z,-63
2019-05-23T15:34:07.070Z,-63
2019-05-23T15:35:04.103Z,-63
2019-05-23T15:36:01.467Z,-63
2019-05-23T15:36:59.888Z,-65
2019-05-23T15:38:01.795Z,-63
2019-05-23T15:39:09.055Z,-63
2019-05-23T15:39:09.574Z,-63
2019-05-23T15:39:10.703Z,-63
2019-05-23T15:39:59.770Z,-63
2019-05-23T15:40:57.984Z,-63
2019-05-23T15:41:59.262Z,-62
2019-05-23T15:42:58.121Z,-63
2019-05-23T15:43:56.852Z,-63
2019-05-23T15:45:04.366Z,-63
2019-05-23T15:46:01.224Z,-63
2019-05-23T15:46:59.893Z,-63
2019-05-23T15:47:59.799Z,-63
2019-05-23T15:48:57.858Z,-64
2019-05-23T15:49:57.817Z,-63
2019-05-23T15:50:56.072Z,-63
2019-05-23T15:51:55.348Z,-63
2019-05-23T15:52:54.596Z,-64
2019-05-23T15:53:53.901Z,-63
2019-05-23T15:54:51.810Z,-64
2019-05-23T15:55:54.088Z,-64
2019-05-23T15:56:52.396Z,-64
2019-05-23T15:57:49.482Z,-63
2019-05-23T15:58:47.624Z,-63
2019-05-23T15:59:44.519Z,-63
2019-05-23T16:00:44.021Z,-63
2019-05-23T16:01:44.220Z,-63
2019-05-23T16:02:41.952Z,-63
2019-05-23T16:03:44.114Z,-63
2019-05-23T16:04:46.338Z,-63
2019-05-23T16:05:45.285Z,-63
2019-05-23T16:06:51.221Z,-63
2019-05-23T16:07:54.098Z,-63
2019-05-23T16:08:51.656Z,-63
2019-05-23T16:09:51.638Z,-63
2019-05-23T16:10:49.224Z,-63
2019-05-23T16:11:46.616Z,-64
2019-05-23T16:12:43.643Z,-63
2019-05-23T16:13:42.740Z,-63
2019-05-23T16:14:39.672Z,-63
2019-05-23T16:15:39.346Z,-63
2019-05-23T16:16:45.423Z,-63
2019-05-23T16:17:42.823Z,-65
2019-05-23T16:18:41.740Z,-63
2019-05-23T16:19:41.920Z,-64
2019-05-23T16:20:40.820Z,-63
2019-05-23T16:21:45.048Z,-63
2019-05-23T16:22:42.302Z,-61
2019-05-23T16:23:40.047Z,-61
2019-05-23T16:24:37.107Z,-60
2019-05-23T16:25:34.891Z,-61
2019-05-23T16:26:34.117Z,-59
2019-05-23T16:27:33.429Z,-59
2019-05-23T16:28:30.956Z,-59
2019-05-23T16:29:29.953Z,-62
2019-05-23T16:30:29.368Z,-62
2019-05-23T16:31:28.526Z,-60
2019-05-23T16:32:27.830Z,-60
2019-05-23T16:33:25.737Z,-61
2019-05-23T16:34:30.454Z,-63
2019-05-23T16:35:30.470Z,-63
2019-05-23T16:36:27.422Z,-59
2019-05-23T16:37:26.437Z,-61
2019-05-23T16:38:26.130Z,-61
2019-05-23T16:39:24.213Z,-61
2019-05-23T16:40:22.888Z,-60
2019-05-23T16:41:22.426Z,-60
2019-05-23T16:42:19.877Z,-62
2019-05-23T16:43:28.368Z,-59
2019-05-23T16:44:28.236Z,-60
2019-05-23T16:45:28.688Z,-61
2019-05-23T16:46:27.159Z,-61
2019-05-23T16:47:25.172Z,-59
2019-05-23T16:48:25.721Z,-60
2019-05-23T16:49:24.643Z,-60
2019-05-23T16:50:22.989Z,-62
2019-05-23T16:51:20.261Z,-60
2019-05-23T16:52:19.533Z,-61
2019-05-23T16:53:23.069Z,-59
2019-05-23T16:54:24.145Z,-60
2019-05-23T16:55:23.849Z,-60
2019-05-23T16:56:22.712Z,-60
2019-05-23T16:57:28.247Z,-60
2019-05-23T16:58:25.683Z,-60
2019-05-23T16:59:24.789Z,-61
2019-05-23T17:00:27.099Z,-59
2019-05-23T17:01:24.906Z,-61
2019-05-23T17:02:22.539Z,-59
2019-05-23T17:03:19.746Z,-61
2019-05-23T17:04:16.831Z,-60
2019-05-23T17:05:16.379Z,-58
2019-05-23T17:06:15.274Z,-61
2019-05-23T17:07:12.268Z,-61
2019-05-23T17:08:11.853Z,-59
2019-05-23T17:09:09.188Z,-59
2019-05-23T17:10:08.794Z,-60
2019-05-23T17:11:06.063Z,-59
2019-05-23T17:12:04.460Z,-59
2019-05-23T17:13:02.932Z,-60
2019-05-23T17:14:01.456Z,-60
2019-05-23T17:15:00.758Z,-59
2019-05-23T17:15:59.435Z,-63
2019-05-23T17:16:58.254Z,-62
2019-05-23T17:18:02.752Z,-60
2019-05-23T17:18:03.308Z,-60
2019-05-23T17:18:56.219Z,-61
2019-05-23T17:19:53.427Z,-60
2019-05-23T17:20:54.822Z,-61
2019-05-23T17:23:26.074Z,-62
2019-05-23T17:24:23.419Z,-61
2019-05-23T17:25:25.030Z,-59
2019-05-23T17:26:24.815Z,-61
2019-05-23T17:27:27.150Z,-62
2019-05-23T17:28:25.789Z,-61
2019-05-23T17:29:22.628Z,-60
2019-05-23T17:30:19.331Z,-61
2019-05-23T17:31:17.182Z,-60
2019-05-23T17:32:18.792Z,-60
2019-05-23T17:33:18.118Z,-60
2019-05-23T17:34:19.599Z,-61
2019-05-23T17:35:18.895Z,-60
2019-05-23T17:36:15.730Z,-60
2019-05-23T17:37:18.257Z,-61
2019-05-23T17:38:26.943Z,-59
2019-05-23T17:39:23.577Z,-61
2019-05-23T17:40:29.943Z,-59
2019-05-23T17:41:29.946Z,-61
2019-05-23T17:42:34.537Z,-61
2019-05-23T17:43:34.397Z,-58
2019-05-23T17:44:32.412Z,-58
2019-05-23T17:45:33.359Z,-58
2019-05-23T17:46:31.253Z,-58
2019-05-23T17:47:30.061Z,-60
2019-05-23T17:48:28.463Z,-59
2019-05-23T17:49:29.670Z,-58
2019-05-23T17:50:27.611Z,-58
2019-05-23T17:51:27.735Z,-59
2019-05-23T17:52:25.088Z,-61
2019-05-23T17:53:26.769Z,-60
2019-05-23T17:54:23.891Z,-60
2019-05-23T17:55:21.050Z,-60
2019-05-23T17:56:28.604Z,-59
2019-05-23T17:57:28.742Z,-59
2019-05-23T17:58:28.968Z,-58
2019-05-23T17:59:28.916Z,-61
2019-05-23T18:00:29.013Z,-59
2019-05-23T18:01:28.937Z,-62
2019-05-23T18:02:25.778Z,-62
2019-05-23T18:03:28.961Z,-60
2019-05-23T18:04:27.803Z,-60
2019-05-23T18:05:24.978Z,-59
2019-05-23T18:06:26.264Z,-61
2019-05-23T18:07:20.676Z,-60
2019-05-23T18:08:20.781Z,-58
2019-05-23T18:09:25.286Z,-58
2019-05-23T18:10:22.867Z,-60
2019-05-23T18:11:19.503Z,-58
2019-05-23T18:12:21.055Z,-61
2019-05-23T18:13:18.905Z,-59
2019-05-23T18:14:18.994Z,-59
2019-05-23T18:15:21.020Z,-59
2019-05-23T18:16:20.455Z,-59
2019-05-23T18:17:24.568Z,-61
2019-05-23T18:18:25.948Z,-60
2019-05-23T18:19:23.519Z,-61
2019-05-23T18:20:25.207Z,-60
2019-05-23T18:21:33.510Z,-61
2019-05-23T18:22:43.685Z,-59
2019-05-23T18:23:40.521Z,-59
2019-05-23T18:24:41.518Z,-60
2019-05-23T18:25:40.886Z,-62
2019-05-23T18:26:40.037Z,-57
2019-05-23T18:27:43.870Z,-58
2019-05-23T18:28:42.186Z,-58
2019-05-23T18:29:40.021Z,-59
2019-05-23T18:30:39.011Z,-59
2019-05-23T18:31:09.859Z,-60
2019-05-23T18:32:05.340Z,-59
2019-05-23T18:33:11.614Z,-58
2019-05-23T18:34:10.565Z,-58
2019-05-23T18:35:18.414Z,-59
2019-05-23T18:36:19.213Z,-58
2019-05-23T18:37:34.182Z,-62
2019-05-23T18:50:52.675Z,-60
2019-05-23T18:51:53.930Z,-60
2019-05-23T18:52:52.391Z,-60
2019-05-23T18:53:50.690Z,-59
2019-05-23T18:54:49.575Z,-60
2019-05-23T18:55:49.415Z,-59
2019-05-23T18:56:48.353Z,-59
2019-05-23T18:57:47.611Z,-60
2019-05-23T18:58:46.328Z,-59
2019-05-23T18:59:46.004Z,-60
2019-05-23T19:00:44.738Z,-61
2019-05-23T19:05:56.774Z,-60
2019-05-23T19:06:55.607Z,-58
2019-05-23T19:07:55.235Z,-59
2019-05-23T19:08:54.108Z,-59
2019-05-23T19:09:53.990Z,-58
2019-05-23T19:10:52.571Z,-58
2019-05-23T19:11:55.198Z,-61
2019-05-23T19:12:53.453Z,-61
2019-05-23T19:13:52.035Z,-59
2019-05-23T19:14:52.685Z,-60
2019-05-23T19:15:52.059Z,-60
2019-05-23T19:16:54.273Z,-61
2019-05-23T19:24:52.078Z,-60
2019-05-23T19:25:54.883Z,-59
2019-05-23T19:26:56.948Z,-59
2019-05-23T19:27:56.226Z,-59
2019-05-23T19:28:56.287Z,-58
2019-05-23T19:29:58.318Z,-60
2019-05-23T19:31:04.227Z,-58
2019-05-23T19:32:02.852Z,-59
2019-05-23T19:33:02.695Z,-59
2019-05-23T19:34:04.550Z,-58
2019-05-23T19:35:05.732Z,-58
2019-05-23T19:36:04.765Z,-59
2019-05-23T19:37:05.516Z,-59
2019-05-23T19:38:07.057Z,-59
2019-05-23T19:39:05.455Z,-60
2019-05-23T19:40:10.425Z,-62
2019-05-23T19:41:10.910Z,-59
2019-05-23T19:42:11.181Z,-58
2019-05-23T19:43:09.411Z,-59
2019-05-23T19:44:10.255Z,-58
2019-05-23T19:45:08.815Z,-59
2019-05-23T19:46:15.696Z,-59
2019-05-23T19:47:20.590Z,-57
2019-05-23T19:48:22.737Z,-56
2019-05-23T19:49:27.400Z,-58
2019-05-23T19:50:23.931Z,-58
2019-05-23T19:51:22.472Z,-58
2019-05-23T19:52:26.696Z,-57
2019-05-23T19:53:26.193Z,-58
2019-05-23T19:54:24.742Z,-59
2019-05-23T19:55:31.148Z,-59
2019-05-23T19:56:33.116Z,-58
2019-05-23T19:59:06.593Z,-58
2019-05-23T20:00:04.514Z,-59
2019-05-23T20:01:07.041Z,-60
2019-05-23T20:02:10.350Z,-58
2019-05-23T20:03:07.487Z,-57
2019-05-23T20:04:07.478Z,-58
2019-05-23T20:05:10.346Z,-59
2019-05-23T20:06:07.722Z,-59
2019-05-23T20:07:06.661Z,-58
2019-05-23T20:08:03.615Z,-59
2019-05-23T20:09:10.326Z,-59
2019-05-23T20:10:07.044Z,-59
2019-05-23T20:11:07.278Z,-60
2019-05-23T20:12:07.165Z,-60
2019-05-23T20:13:03.957Z,-60
2019-05-23T20:14:12.415Z,-59
2019-05-23T20:15:09.425Z,-61
2019-05-23T20:16:07.945Z,-59
2019-05-23T20:17:16.162Z,-60
2019-05-23T20:18:13.450Z,-59
2019-05-23T20:19:13.241Z,-59
2019-05-23T20:20:10.043Z,-59
2019-05-23T20:21:09.534Z,-59
2019-05-23T20:22:11.893Z,-59
2019-05-23T20:23:10.166Z,-59
2019-05-23T20:24:07.742Z,-58
2019-05-23T20:25:04.520Z,-58
2019-05-23T20:26:03.296Z,-59
2019-05-23T20:27:02.236Z,-59
2019-05-23T20:28:03.237Z,-57
2019-05-23T20:29:03.175Z,-59
2019-05-23T20:30:02.723Z,-59
2019-05-23T20:30:59.653Z,-58
2019-05-23T20:31:56.597Z,-61
2019-05-23T20:32:54.763Z,-60
2019-05-23T20:33:53.068Z,-60
2019-05-23T20:34:51.120Z,-60
2019-05-23T20:35:47.943Z,-59
2019-05-23T20:36:45.052Z,-60
2019-05-23T20:37:45.012Z,-59
2019-05-23T20:38:49.536Z,-60
2019-05-23T20:39:48.232Z,-59
2019-05-23T20:40:46.527Z,-59
2019-05-23T20:41:43.374Z,-58
2019-05-23T20:42:40.519Z,-59
2019-05-23T20:43:39.273Z,-58
2019-05-23T20:44:40.454Z,-60
2019-05-23T20:45:41.277Z,-59
2019-05-23T20:46:42.081Z,-59
2019-05-23T20:47:41.563Z,-57
2019-05-23T20:48:39.882Z,-57
2019-05-23T20:49:37.456Z,-58
2019-05-23T20:50:37.469Z,-57
2019-05-23T20:51:34.451Z,-57
2019-05-23T20:52:31.441Z,-58
2019-05-23T20:53:30.715Z,-58
2019-05-23T20:54:28.685Z,-57
2019-05-23T20:55:26.675Z,-58
2019-05-23T20:56:27.051Z,-58
2019-05-23T20:57:27.154Z,-57
2019-05-23T20:58:27.445Z,-57
2019-05-23T20:59:28.072Z,-57
2019-05-23T21:00:25.553Z,-57
2019-05-23T21:01:22.946Z,-58
2019-05-23T21:02:25.154Z,-58
2019-05-23T21:03:22.635Z,-57
2019-05-23T21:04:22.893Z,-57
2019-05-23T21:05:20.798Z,-57
2019-05-23T21:06:17.881Z,-57
2019-05-23T21:07:19.523Z,-57
2019-05-23T21:08:18.417Z,-58
2019-05-23T21:09:18.214Z,-57
2019-05-23T21:10:17.298Z,-57
2019-05-23T21:11:21.595Z,-57
2019-05-23T21:12:29.871Z,-57
2019-05-23T21:12:29.961Z,-57
2019-05-23T21:13:19.107Z,-57
2019-05-23T21:14:16.336Z,-58
2019-05-23T21:15:13.193Z,-58
2019-05-23T21:16:10.990Z,-57
2019-05-23T21:17:08.157Z,-57
2019-05-23T21:18:06.854Z,-57
2019-05-23T21:19:06.365Z,-58
2019-05-23T21:20:03.521Z,-57
2019-05-23T21:21:01.312Z,-57
2019-05-23T21:22:00.690Z,-57
2019-05-23T21:22:58.666Z,-58
2019-05-23T21:23:58.319Z,-57
2019-05-23T21:24:55.353Z,-57
2019-05-23T21:25:55.999Z,-57
2019-05-23T21:26:54.853Z,-57
2019-05-23T21:27:55.836Z,-57
2019-05-23T21:28:53.103Z,-58
2019-05-23T21:29:51.365Z,-57
2019-05-23T21:30:48.464Z,-57
2019-05-23T21:31:48.987Z,-57
2019-05-23T21:32:45.970Z,-58
2019-05-23T21:33:43.896Z,-57
2019-05-23T21:34:40.843Z,-57
2019-05-23T21:35:41.485Z,-57
2019-05-23T21:36:41.587Z,-58
2019-05-23T21:37:40.491Z,-57
2019-05-23T21:38:42.566Z,-57
2019-05-23T21:39:40.948Z,-57
2019-05-23T21:40:37.650Z,-57